createdAt,value
2022-08-31T00:02:39.687Z,19.95
2022-08-31T00:05:07.582Z,19.93
2022-08-31T00:07:35.200Z,19.91
2022-08-31T00:10:14.288Z,19.92
2022-08-31T00:12:46.300Z,19.89
2022-08-31T00:15:18.668Z,19.84
2022-08-31T00:17:46.883Z,19.85
2022-08-31T00:20:32.866Z,19.87
2022-08-31T00:23:01.432Z,19.83
2022-08-31T00:25:28.174Z,19.82
2022-08-31T00:27:55.879Z,19.80
2022-08-31T00:30:23.379Z,19.80
2022-08-31T00:32:50.361Z,19.79
2022-08-31T00:35:17.202Z,19.76
2022-08-31T00:37:43.934Z,19.76
2022-08-31T00:40:11.367Z,19.73
2022-08-31T00:42:38.281Z,19.70
2022-08-31T00:45:05.965Z,19.69
2022-08-31T00:47:32.709Z,19.70
2022-08-31T00:50:00.328Z,19.69
2022-08-31T00:52:37.622Z,19.66
2022-08-31T00:55:11.954Z,19.63
2022-08-31T00:57:41.556Z,19.62
2022-08-31T01:00:13.635Z,19.60
2022-08-31T01:02:41.466Z,19.57
2022-08-31T01:05:10.145Z,19.57
2022-08-31T01:07:37.219Z,19.54
2022-08-31T01:10:05.138Z,19.48
2022-08-31T01:12:32.012Z,19.48
2022-08-31T01:15:02.674Z,19.47
2022-08-31T01:17:31.809Z,19.44
2022-08-31T01:20:11.740Z,19.43
2022-08-31T01:22:56.923Z,19.46
2022-08-31T01:25:24.470Z,19.42
2022-08-31T01:28:02.194Z,19.48
2022-08-31T01:30:30.164Z,19.50
2022-08-31T01:32:56.758Z,19.42
2022-08-31T01:35:23.485Z,19.51
2022-08-31T01:37:50.538Z,19.67
2022-08-31T01:40:18.154Z,19.65
2022-08-31T01:42:44.786Z,19.69
2022-08-31T01:45:12.667Z,19.80
2022-08-31T01:47:40.205Z,19.66
2022-08-31T01:50:08.282Z,19.60
2022-08-31T01:52:37.433Z,19.63
2022-08-31T01:55:06.689Z,19.40
2022-08-31T01:57:34.701Z,19.51
2022-08-31T02:00:16.408Z,19.39
2022-08-31T02:02:44.431Z,19.41
2022-08-31T02:05:12.231Z,19.58
2022-08-31T02:07:38.830Z,19.54
2022-08-31T02:10:06.096Z,19.51
2022-08-31T02:12:32.748Z,19.50
2022-08-31T02:14:59.435Z,19.49
2022-08-31T02:17:26.168Z,19.48
2022-08-31T02:19:52.763Z,19.44
2022-08-31T02:22:19.391Z,19.25
2022-08-31T02:24:46.206Z,19.02
2022-08-31T02:27:13.010Z,19.21
2022-08-31T02:32:27.962Z,19.26
2022-08-31T02:34:57.522Z,19.29
2022-08-31T02:37:24.902Z,19.23
2022-08-31T02:39:51.853Z,19.23
2022-08-31T02:42:23.530Z,19.09
2022-08-31T02:44:53.090Z,19.05
2022-08-31T02:47:19.920Z,18.99
2022-08-31T02:49:58.527Z,18.88
2022-08-31T02:52:25.364Z,18.85
2022-08-31T02:54:52.279Z,18.75
2022-08-31T02:57:19.225Z,18.46
2022-08-31T02:59:46.030Z,18.41
2022-08-31T03:02:14.034Z,18.53
2022-08-31T03:04:44.544Z,18.56
2022-08-31T03:07:14.720Z,18.57
2022-08-31T03:09:45.410Z,18.44
2022-08-31T03:12:12.320Z,18.23
2022-08-31T03:14:39.648Z,18.26
2022-08-31T03:17:07.169Z,18.17
2022-08-31T03:19:34.733Z,18.27
2022-08-31T03:22:03.621Z,18.23
2022-08-31T03:24:31.481Z,18.17
2022-08-31T03:26:59.167Z,18.20
2022-08-31T03:29:26.168Z,18.20
2022-08-31T03:31:56.138Z,18.25
2022-08-31T03:34:24.967Z,17.92
2022-08-31T03:36:51.857Z,17.97
2022-08-31T03:39:18.859Z,18.01
2022-08-31T03:41:45.827Z,17.79
2022-08-31T03:44:13.092Z,17.73
2022-08-31T03:46:43.343Z,17.66
2022-08-31T03:49:12.590Z,17.78
2022-08-31T03:51:46.592Z,17.75
2022-08-31T03:54:13.992Z,17.78
2022-08-31T03:56:41.291Z,17.89
2022-08-31T03:59:08.523Z,17.76
2022-08-31T04:01:58.519Z,17.51
2022-08-31T04:05:00.538Z,17.20
2022-08-31T04:07:43.254Z,17.22
2022-08-31T04:10:32.138Z,16.99
2022-08-31T04:13:17.965Z,17.14
2022-08-31T04:16:10.270Z,17.02
2022-08-31T04:18:55.453Z,17.19
2022-08-31T04:21:25.629Z,17.21
2022-08-31T04:23:53.824Z,17.24
2022-08-31T04:26:27.284Z,17.04
2022-08-31T04:28:54.557Z,16.95
2022-08-31T04:31:23.058Z,16.82
2022-08-31T04:33:50.649Z,16.72
2022-08-31T04:36:22.341Z,16.86
2022-08-31T04:38:56.167Z,16.52
2022-08-31T04:41:26.595Z,16.50
2022-08-31T04:43:56.605Z,16.57
2022-08-31T04:46:25.221Z,16.50
2022-08-31T04:48:52.479Z,16.38
2022-08-31T04:51:28.413Z,16.39
2022-08-31T04:53:55.960Z,16.30
2022-08-31T04:56:31.949Z,16.31
2022-08-31T04:59:02.447Z,16.47
2022-08-31T05:01:35.999Z,16.46
2022-08-31T05:04:36.406Z,16.58
2022-08-31T05:07:03.908Z,16.56
2022-08-31T05:09:30.944Z,16.59
2022-08-31T05:11:57.999Z,16.57
2022-08-31T05:14:26.112Z,16.53
2022-08-31T05:17:01.479Z,16.50
2022-08-31T05:19:32.171Z,16.54
2022-08-31T05:21:59.586Z,16.53
2022-08-31T05:24:26.765Z,16.55
2022-08-31T05:26:56.270Z,16.53
2022-08-31T05:29:27.156Z,16.60
2022-08-31T05:32:12.374Z,16.39
2022-08-31T05:34:39.821Z,16.52
2022-08-31T05:37:06.786Z,16.49
2022-08-31T05:39:33.992Z,16.45
2022-08-31T05:42:01.062Z,16.52
2022-08-31T05:44:29.360Z,16.54
2022-08-31T05:47:03.623Z,16.30
2022-08-31T05:49:32.496Z,16.31
2022-08-31T05:52:00.685Z,16.28
2022-08-31T05:54:28.312Z,16.49
2022-08-31T05:57:01.230Z,16.42
2022-08-31T05:59:30.031Z,16.32
2022-08-31T06:01:57.820Z,16.21
2022-08-31T06:04:28.450Z,16.34
2022-08-31T06:06:55.755Z,16.39
2022-08-31T06:09:25.962Z,16.39
2022-08-31T06:11:55.578Z,16.38
2022-08-31T06:14:23.692Z,16.47
2022-08-31T06:16:51.113Z,16.42
2022-08-31T06:19:19.975Z,16.52
2022-08-31T06:21:52.227Z,16.55
2022-08-31T06:24:25.161Z,16.49
2022-08-31T06:26:58.923Z,16.49
2022-08-31T06:29:33.528Z,16.64
2022-08-31T06:32:06.276Z,16.59
2022-08-31T06:34:34.629Z,16.56
2022-08-31T06:37:02.277Z,16.37
2022-08-31T06:39:54.401Z,16.34
2022-08-31T06:42:39.477Z,16.21
2022-08-31T06:45:27.438Z,16.13
2022-08-31T06:48:01.737Z,16.19
2022-08-31T06:50:28.776Z,16.09
2022-08-31T06:52:56.051Z,16.07
2022-08-31T06:55:25.213Z,15.99
2022-08-31T06:58:11.914Z,15.99
2022-08-31T07:01:07.449Z,16.06
2022-08-31T07:04:08.531Z,16.06
2022-08-31T07:06:38.294Z,16.10
2022-08-31T07:09:07.903Z,16.14
2022-08-31T07:11:54.292Z,16.03
2022-08-31T07:14:24.964Z,16.16
2022-08-31T07:16:56.808Z,16.15
2022-08-31T07:19:25.237Z,16.11
2022-08-31T07:22:02.119Z,16.17
2022-08-31T07:24:33.403Z,16.30
2022-08-31T07:27:13.178Z,16.37
2022-08-31T07:29:48.190Z,16.37
2022-08-31T07:32:17.657Z,16.32
2022-08-31T07:34:45.321Z,16.43
2022-08-31T07:37:45.388Z,16.65
2022-08-31T07:40:31.487Z,16.77
2022-08-31T07:43:06.957Z,16.67
2022-08-31T07:45:39.417Z,16.64
2022-08-31T07:48:08.033Z,16.64
2022-08-31T07:51:04.048Z,16.79
2022-08-31T07:53:55.078Z,16.93
2022-08-31T07:56:35.113Z,16.91
2022-08-31T07:59:28.046Z,17.00
2022-08-31T08:01:56.166Z,17.12
2022-08-31T08:04:27.109Z,17.22
2022-08-31T08:07:13.086Z,17.32
2022-08-31T08:09:49.157Z,17.32
2022-08-31T08:12:57.372Z,17.39
2022-08-31T08:15:51.017Z,17.52
2022-08-31T08:18:46.977Z,17.65
2022-08-31T08:21:17.546Z,17.66
2022-08-31T08:23:47.315Z,17.86
2022-08-31T08:26:45.845Z,17.75
2022-08-31T08:29:33.471Z,17.68
2022-08-31T08:32:01.991Z,17.37
2022-08-31T08:34:32.887Z,17.78
2022-08-31T08:37:01.999Z,18.09
2022-08-31T08:39:29.835Z,18.50
2022-08-31T08:42:23.721Z,18.73
2022-08-31T08:44:50.672Z,18.79
2022-08-31T08:47:25.645Z,19.28
2022-08-31T08:50:05.570Z,19.42
2022-08-31T08:52:44.551Z,19.39
2022-08-31T08:55:17.701Z,19.78
2022-08-31T08:57:49.655Z,19.44
2022-08-31T09:00:20.100Z,19.28
2022-08-31T09:02:58.383Z,19.15
2022-08-31T09:05:48.678Z,19.15
2022-08-31T09:08:48.217Z,19.28
2022-08-31T09:11:35.194Z,19.08
2022-08-31T09:14:28.665Z,19.14
2022-08-31T09:17:16.128Z,19.42
2022-08-31T09:20:00.641Z,19.11
2022-08-31T09:22:33.163Z,19.15
2022-08-31T09:25:03.661Z,19.32
2022-08-31T09:28:07.583Z,19.51
2022-08-31T09:30:43.877Z,19.54
2022-08-31T09:33:24.508Z,19.64
2022-08-31T09:35:56.978Z,19.78
2022-08-31T09:38:30.927Z,19.94
2022-08-31T09:40:58.365Z,19.80
2022-08-31T09:43:37.647Z,19.85
2022-08-31T09:46:28.234Z,19.89
2022-08-31T09:48:58.584Z,19.97
2022-08-31T09:51:30.806Z,19.87
2022-08-31T09:54:25.884Z,19.97
2022-08-31T09:56:57.195Z,20.00
2022-08-31T09:59:48.179Z,20.04
2022-08-31T10:02:30.313Z,20.23
2022-08-31T10:05:01.429Z,19.83
2022-08-31T10:07:28.989Z,20.43
2022-08-31T10:10:28.092Z,19.92
2022-08-31T10:13:03.926Z,20.75
2022-08-31T10:15:48.615Z,21.34
2022-08-31T10:18:26.489Z,21.51
2022-08-31T10:20:59.766Z,21.18
2022-08-31T10:23:36.252Z,21.41
2022-08-31T10:26:13.673Z,22.00
2022-08-31T10:28:55.947Z,21.89
2022-08-31T10:31:51.148Z,22.00
2022-08-31T10:34:49.218Z,22.38
2022-08-31T10:37:24.214Z,22.41
2022-08-31T10:40:05.655Z,21.49
2022-08-31T10:42:38.591Z,22.71
2022-08-31T10:45:18.407Z,22.96
2022-08-31T10:47:49.293Z,22.97
2022-08-31T10:50:28.715Z,22.55
2022-08-31T10:53:06.911Z,22.29
2022-08-31T10:55:46.750Z,21.56
2022-08-31T10:58:33.153Z,22.90
2022-08-31T11:01:10.030Z,22.69
2022-08-31T11:04:01.948Z,23.11
2022-08-31T11:06:38.002Z,23.32
2022-08-31T11:09:31.924Z,23.14
2022-08-31T11:12:09.056Z,23.42
2022-08-31T11:14:58.690Z,24.19
2022-08-31T11:17:40.893Z,23.60
2022-08-31T11:20:41.004Z,23.32
2022-08-31T11:23:43.799Z,23.76
2022-08-31T11:26:39.226Z,24.14
2022-08-31T11:29:27.224Z,24.99
2022-08-31T11:31:55.428Z,23.95
2022-08-31T11:34:26.157Z,24.15
2022-08-31T11:37:04.135Z,23.85
2022-08-31T11:39:33.925Z,26.24
2022-08-31T11:42:00.959Z,25.79
2022-08-31T11:44:31.047Z,24.23
2022-08-31T11:47:46.795Z,23.21
2022-08-31T11:50:36.915Z,23.90
2022-08-31T11:53:25.438Z,25.02
2022-08-31T11:55:59.768Z,24.26
2022-08-31T11:58:34.435Z,25.35
2022-08-31T12:01:27.176Z,23.11
2022-08-31T12:04:03.561Z,23.20
2022-08-31T12:06:37.392Z,24.88
2022-08-31T12:09:19.593Z,24.78
2022-08-31T12:12:12.411Z,25.55
2022-08-31T12:14:56.889Z,25.01
2022-08-31T12:17:34.091Z,25.72
2022-08-31T12:20:09.244Z,26.46
2022-08-31T12:23:20.609Z,24.46
2022-08-31T12:26:45.133Z,26.43
2022-08-31T12:29:21.819Z,26.19
2022-08-31T12:32:10.954Z,26.26
2022-08-31T12:34:44.817Z,24.66
2022-08-31T12:37:38.884Z,25.35
2022-08-31T12:40:10.419Z,25.28
2022-08-31T12:42:50.985Z,25.27
2022-08-31T12:45:18.778Z,24.44
2022-08-31T12:48:02.256Z,25.36
2022-08-31T12:51:02.853Z,24.16
2022-08-31T12:53:51.665Z,24.89
2022-08-31T12:56:30.634Z,24.02
2022-08-31T12:59:06.455Z,24.40
2022-08-31T13:01:42.356Z,23.47
2022-08-31T13:04:10.993Z,23.36
2022-08-31T13:06:40.849Z,23.92
2022-08-31T13:09:07.966Z,23.69
2022-08-31T13:11:46.924Z,24.07
2022-08-31T13:14:24.641Z,23.21
2022-08-31T13:17:04.148Z,23.77
2022-08-31T13:19:34.321Z,23.38
2022-08-31T13:22:05.434Z,23.80
2022-08-31T13:24:41.459Z,23.78
2022-08-31T13:27:26.839Z,23.95
2022-08-31T13:29:57.045Z,23.72
2022-08-31T13:32:31.825Z,23.61
2022-08-31T13:35:09.275Z,23.56
2022-08-31T13:38:05.631Z,23.39
2022-08-31T13:40:37.598Z,23.18
2022-08-31T13:43:09.915Z,23.75
2022-08-31T13:45:58.415Z,23.91
2022-08-31T13:48:34.854Z,23.84
2022-08-31T13:51:13.216Z,24.19
2022-08-31T13:53:42.189Z,23.52
2022-08-31T13:56:52.777Z,23.39
2022-08-31T13:59:28.582Z,23.92
2022-08-31T14:02:14.843Z,23.65
2022-08-31T14:04:48.690Z,23.76
2022-08-31T14:07:21.576Z,23.40
2022-08-31T14:10:04.484Z,23.62
2022-08-31T14:12:39.065Z,24.02
2022-08-31T14:15:15.344Z,24.53
2022-08-31T14:18:23.936Z,24.28
2022-08-31T14:20:34.192Z,24.48
2022-08-31T14:23:27.377Z,25.13
2022-08-31T14:25:59.987Z,24.87
2022-08-31T14:28:40.678Z,24.95
2022-08-31T14:31:34.998Z,24.32
2022-08-31T14:34:22.640Z,24.75
2022-08-31T14:37:22.623Z,24.54
2022-08-31T14:39:51.984Z,24.97
2022-08-31T14:42:25.840Z,25.27
2022-08-31T14:44:56.922Z,25.31
2022-08-31T14:47:27.825Z,25.11
2022-08-31T14:49:57.101Z,25.00
2022-08-31T14:52:28.149Z,24.93
2022-08-31T14:54:56.170Z,24.65
2022-08-31T14:57:25.914Z,24.55
2022-08-31T14:59:57.846Z,24.37
2022-08-31T15:02:27.916Z,24.68
2022-08-31T15:05:06.687Z,24.42
2022-08-31T15:07:37.631Z,24.60
2022-08-31T15:10:08.421Z,24.37
2022-08-31T15:12:35.943Z,24.72
2022-08-31T15:15:02.904Z,24.15
2022-08-31T15:17:34.012Z,24.47
2022-08-31T15:20:05.322Z,24.92
2022-08-31T15:22:32.532Z,25.33
2022-08-31T15:24:59.521Z,25.01
2022-08-31T15:27:31.589Z,24.52
2022-08-31T15:30:08.217Z,24.49
2022-08-31T15:32:39.911Z,24.61
2022-08-31T15:35:07.405Z,25.07
2022-08-31T15:37:34.270Z,24.83
2022-08-31T15:40:04.396Z,24.83
2022-08-31T15:42:33.985Z,24.93
2022-08-31T15:45:01.269Z,24.36
2022-08-31T15:47:49.661Z,24.14
2022-08-31T15:50:18.837Z,24.10
2022-08-31T15:52:51.187Z,24.53
2022-08-31T15:55:23.587Z,24.23
2022-08-31T15:57:54.530Z,24.61
2022-08-31T16:00:27.195Z,24.35
2022-08-31T16:02:56.092Z,24.34
2022-08-31T16:05:35.867Z,24.23
2022-08-31T16:08:03.255Z,24.42
2022-08-31T16:10:33.776Z,23.94
2022-08-31T16:13:03.276Z,23.99
2022-08-31T16:15:32.891Z,24.21
2022-08-31T16:18:03.168Z,24.13
2022-08-31T16:20:30.085Z,24.15
2022-08-31T16:22:59.427Z,24.14
2022-08-31T16:25:41.806Z,23.94
2022-08-31T16:28:16.529Z,23.82
2022-08-31T16:30:44.586Z,23.70
2022-08-31T16:33:12.049Z,23.65
2022-08-31T16:35:39.902Z,23.41
2022-08-31T16:38:07.273Z,23.36
2022-08-31T16:40:35.739Z,23.29
2022-08-31T16:43:03.218Z,23.14
2022-08-31T16:45:30.532Z,22.97
2022-08-31T16:48:15.972Z,22.95
2022-08-31T16:50:48.788Z,22.84
2022-08-31T16:53:18.335Z,22.75
2022-08-31T16:55:49.671Z,22.67
2022-08-31T16:58:34.547Z,22.70
2022-08-31T17:01:13.449Z,22.56
2022-08-31T17:03:44.938Z,22.49
2022-08-31T17:06:13.232Z,22.50
2022-08-31T17:08:45.649Z,22.34
2022-08-31T17:11:26.321Z,22.26
2022-08-31T17:13:58.492Z,22.27
2022-08-31T17:16:28.118Z,22.20
2022-08-31T17:18:57.683Z,22.11
2022-08-31T17:21:28.811Z,22.05
2022-08-31T17:24:02.125Z,21.93
2022-08-31T17:26:34.863Z,21.83
2022-08-31T17:29:05.757Z,21.84
2022-08-31T17:31:42.338Z,21.67
2022-08-31T17:34:27.082Z,21.64
2022-08-31T17:36:57.183Z,21.60
2022-08-31T17:39:24.913Z,21.52
2022-08-31T17:41:52.528Z,21.36
2022-08-31T17:44:21.308Z,21.33
2022-08-31T17:46:52.367Z,21.27
2022-08-31T17:49:22.918Z,21.19
2022-08-31T17:51:51.723Z,21.12
2022-08-31T17:54:30.276Z,21.07
2022-08-31T17:57:00.871Z,20.96
2022-08-31T17:59:34.747Z,20.94
2022-08-31T18:02:05.168Z,20.79
2022-08-31T18:04:34.348Z,20.74
2022-08-31T18:07:02.484Z,20.70
2022-08-31T18:09:33.526Z,20.70
2022-08-31T18:12:01.487Z,20.70
2022-08-31T18:14:31.417Z,20.46
2022-08-31T18:17:01.500Z,20.41
2022-08-31T18:19:30.044Z,20.26
2022-08-31T18:21:57.218Z,20.12
2022-08-31T18:24:34.250Z,20.22
2022-08-31T18:27:04.193Z,20.14
2022-08-31T18:29:34.655Z,20.15
2022-08-31T18:32:04.336Z,20.00
2022-08-31T18:34:44.813Z,19.89
2022-08-31T18:37:13.171Z,19.88
2022-08-31T18:40:00.448Z,19.68
2022-08-31T18:42:47.085Z,19.66
2022-08-31T18:45:21.144Z,19.64
2022-08-31T18:50:44.744Z,19.44
2022-08-31T18:53:15.063Z,19.34
2022-08-31T18:55:43.819Z,19.36
2022-08-31T18:58:13.578Z,19.27
2022-08-31T19:00:40.674Z,19.22
2022-08-31T19:03:08.486Z,19.11
2022-08-31T19:05:38.757Z,19.09
2022-08-31T19:08:05.603Z,19.06
2022-08-31T19:10:32.508Z,18.97
2022-08-31T19:13:01.328Z,18.98
2022-08-31T19:15:35.888Z,18.85
2022-08-31T19:18:05.674Z,18.79
2022-08-31T19:20:33.616Z,18.82
2022-08-31T19:23:00.759Z,18.77
2022-08-31T19:25:27.932Z,18.72
2022-08-31T19:27:55.939Z,18.62
2022-08-31T19:30:27.438Z,18.64
2022-08-31T19:32:56.552Z,18.63
2022-08-31T19:35:27.081Z,18.51
2022-08-31T19:37:54.443Z,18.55
2022-08-31T19:40:21.455Z,18.50
2022-08-31T19:45:45.138Z,18.43
2022-08-31T19:48:13.457Z,18.39
2022-08-31T19:50:42.470Z,18.40
2022-08-31T19:53:12.318Z,18.31
2022-08-31T19:55:50.297Z,18.26
2022-08-31T19:58:19.846Z,18.22
2022-08-31T20:00:48.073Z,18.10
2022-08-31T20:03:16.002Z,18.24
2022-08-31T20:05:43.869Z,18.19
2022-08-31T20:08:13.678Z,18.00
2022-08-31T20:10:46.172Z,17.97
2022-08-31T20:13:13.470Z,17.99
2022-08-31T20:15:42.697Z,17.95
2022-08-31T20:18:12.085Z,17.94
2022-08-31T20:20:45.836Z,17.91
2022-08-31T20:23:16.994Z,17.93
2022-08-31T20:25:45.864Z,17.91
2022-08-31T20:28:13.838Z,17.89
2022-08-31T20:30:42.430Z,17.97
2022-08-31T20:33:11.375Z,17.92
2022-08-31T20:35:47.894Z,17.88
2022-08-31T20:38:16.745Z,17.78
2022-08-31T20:40:47.411Z,17.77
2022-08-31T20:43:15.173Z,17.72
2022-08-31T20:45:42.624Z,17.77
2022-08-31T20:48:28.598Z,17.70
2022-08-31T20:50:56.808Z,17.66
2022-08-31T20:53:36.015Z,17.76
2022-08-31T20:56:16.906Z,17.68
2022-08-31T20:58:45.049Z,17.83
2022-08-31T21:01:16.195Z,17.75
2022-08-31T21:03:43.187Z,17.74
2022-08-31T21:06:13.227Z,17.72
2022-08-31T21:08:42.733Z,17.82
2022-08-31T21:11:18.257Z,17.88
2022-08-31T21:13:47.014Z,17.84
2022-08-31T21:16:20.449Z,17.83
2022-08-31T21:18:50.639Z,17.74
2022-08-31T21:21:17.810Z,17.82
2022-08-31T21:23:46.236Z,17.76
2022-08-31T21:26:22.763Z,17.84
2022-08-31T21:28:50.982Z,17.76
2022-08-31T21:31:28.997Z,17.72
2022-08-31T21:34:03.173Z,17.76
2022-08-31T21:36:32.849Z,17.61
2022-08-31T21:39:00.175Z,17.53
2022-08-31T21:41:30.019Z,17.55
2022-08-31T21:43:57.687Z,17.50
2022-08-31T21:46:27.570Z,17.46
2022-08-31T21:48:56.793Z,17.38
2022-08-31T21:51:29.254Z,17.46
2022-08-31T21:53:59.458Z,17.43
2022-08-31T21:56:30.257Z,17.32
2022-08-31T21:58:58.422Z,17.30
2022-08-31T22:01:28.443Z,17.20
2022-08-31T22:03:59.380Z,17.24
2022-08-31T22:06:32.595Z,17.22
2022-08-31T22:09:06.738Z,17.12
2022-08-31T22:11:37.509Z,17.08
2022-08-31T22:14:08.048Z,17.04
2022-08-31T22:16:39.519Z,17.03
2022-08-31T22:19:12.758Z,16.99
2022-08-31T22:21:42.988Z,16.97
2022-08-31T22:24:13.012Z,16.89
2022-08-31T22:26:57.809Z,16.99
2022-08-31T22:29:27.397Z,16.93
2022-08-31T22:32:00.418Z,16.90
2022-08-31T22:34:27.463Z,16.82
2022-08-31T22:36:56.380Z,16.72
2022-08-31T22:39:29.556Z,16.67
2022-08-31T22:41:58.669Z,16.64
2022-08-31T22:44:28.177Z,16.77
2022-08-31T22:46:57.212Z,16.64
2022-08-31T22:49:26.219Z,16.58
2022-08-31T22:51:54.511Z,16.68
2022-08-31T22:54:23.742Z,16.70
2022-08-31T22:56:51.130Z,16.58
2022-08-31T22:59:27.559Z,16.58
2022-08-31T23:02:00.604Z,16.40
2022-08-31T23:04:29.946Z,16.31
2022-08-31T23:06:57.625Z,16.47
2022-08-31T23:09:27.937Z,16.40
2022-08-31T23:11:56.656Z,16.28
2022-08-31T23:14:24.426Z,16.37
2022-08-31T23:16:59.256Z,16.33
2022-08-31T23:19:41.586Z,16.25
2022-08-31T23:22:15.217Z,16.32
2022-08-31T23:24:48.217Z,16.33
2022-08-31T23:27:21.785Z,16.33
2022-08-31T23:29:56.177Z,16.18
2022-08-31T23:32:28.022Z,16.11
2022-08-31T23:34:58.587Z,16.04
2022-08-31T23:37:30.695Z,15.94
2022-08-31T23:39:58.964Z,15.96
2022-08-31T23:42:27.864Z,15.87
2022-08-31T23:44:55.619Z,15.83
2022-08-31T23:47:29.163Z,15.86
2022-08-31T23:49:57.963Z,15.76
2022-08-31T23:52:31.928Z,15.79
2022-08-31T23:54:59.489Z,15.75
2022-08-31T23:57:33.339Z,15.77
